sensor_id;sensor_type;location;lat;lon;timestamp;temperature;humidity
10911;DHT22;5508;49.150;11.030;2022-12-13T00:01:30;-10.70;99.90
10911;DHT22;5508;49.150;11.030;2022-12-13T00:04:31;-10.80;99.90
10911;DHT22;5508;49.150;11.030;2022-12-13T00:07:33;-10.80;99.90
10911;DHT22;5508;49.150;11.030;2022-12-13T00:10:33;-10.70;99.90
10911;DHT22;5508;49.150;11.030;2022-12-13T00:13:34;-10.70;99.90
10911;DHT22;5508;49.150;11.030;2022-12-13T00:16:35;-10.70;99.90
10911;DHT22;5508;49.150;11.030;2022-12-13T00:19:35;-10.70;99.90
10911;DHT22;5508;49.150;11.030;2022-12-13T00:22:36;-10.70;99.90
10911;DHT22;5508;49.150;11.030;2022-12-13T00:25:37;-10.80;99.90
10911;DHT22;5508;49.150;11.030;2022-12-13T00:28:38;-10.90;99.90
10911;DHT22;5508;49.150;11.030;2022-12-13T00:31:39;-11.00;99.90
10911;DHT22;5508;49.150;11.030;2022-12-13T00:34:40;-11.00;99.90
10911;DHT22;5508;49.150;11.030;2022-12-13T00:37:40;-10.90;99.90
10911;DHT22;5508;49.150;11.030;2022-12-13T00:40:41;-10.90;99.90
10911;DHT22;5508;49.150;11.030;2022-12-13T00:43:42;-11.00;99.90
10911;DHT22;5508;49.150;11.030;2022-12-13T00:46:42;-10.90;99.90
10911;DHT22;5508;49.150;11.030;2022-12-13T00:49:43;-10.90;99.90
10911;DHT22;5508;49.150;11.030;2022-12-13T00:52:43;-11.00;99.90
10911;DHT22;5508;49.150;11.030;2022-12-13T00:55:44;-11.00;99.90
10911;DHT22;5508;49.150;11.030;2022-12-13T00:58:44;-11.10;99.90
10911;DHT22;5508;49.150;11.030;2022-12-13T01:01:45;-11.10;99.90
10911;DHT22;5508;49.150;11.030;2022-12-13T01:04:48;-11.10;99.90
10911;DHT22;5508;49.150;11.030;2022-12-13T01:07:49;-11.20;99.90
10911;DHT22;5508;49.150;11.030;2022-12-13T01:10:49;-11.20;99.90
10911;DHT22;5508;49.150;11.030;2022-12-13T01:13:50;-11.20;99.90
10911;DHT22;5508;49.150;11.030;2022-12-13T01:16:51;-11.10;99.90
10911;DHT22;5508;49.150;11.030;2022-12-13T01:19:55;-11.00;99.90
10911;DHT22;5508;49.150;11.030;2022-12-13T01:22:55;-10.90;99.90
10911;DHT22;5508;49.150;11.030;2022-12-13T01:25:56;-10.90;99.90
10911;DHT22;5508;49.150;11.030;2022-12-13T01:28:57;-11.00;99.90
10911;DHT22;5508;49.150;11.030;2022-12-13T01:31:57;-11.20;99.90
10911;DHT22;5508;49.150;11.030;2022-12-13T01:34:58;-11.20;99.90
10911;DHT22;5508;49.150;11.030;2022-12-13T01:37:59;-11.10;99.90
10911;DHT22;5508;49.150;11.030;2022-12-13T01:41:00;-11.10;99.90
10911;DHT22;5508;49.150;11.030;2022-12-13T01:44:06;-11.00;99.90
10911;DHT22;5508;49.150;11.030;2022-12-13T01:47:44;-11.20;99.90
10911;DHT22;5508;49.150;11.030;2022-12-13T01:50:50;-11.30;99.90
10911;DHT22;5508;49.150;11.030;2022-12-13T01:53:54;-11.30;99.90
10911;DHT22;5508;49.150;11.030;2022-12-13T01:56:58;-11.40;99.90
10911;DHT22;5508;49.150;11.030;2022-12-13T01:59:58;-11.40;99.90
10911;DHT22;5508;49.150;11.030;2022-12-13T02:03:00;-11.50;99.90
10911;DHT22;5508;49.150;11.030;2022-12-13T02:06:09;-11.40;99.90
10911;DHT22;5508;49.150;11.030;2022-12-13T02:09:12;-11.40;99.90
10911;DHT22;5508;49.150;11.030;2022-12-13T02:12:14;-11.50;99.90
10911;DHT22;5508;49.150;11.030;2022-12-13T02:15:16;-11.40;99.90
10911;DHT22;5508;49.150;11.030;2022-12-13T02:18:25;-11.30;99.90
10911;DHT22;5508;49.150;11.030;2022-12-13T02:29:04;-11.40;99.90
10911;DHT22;5508;49.150;11.030;2022-12-13T02:32:30;-11.30;99.90
10911;DHT22;5508;49.150;11.030;2022-12-13T02:35:50;-11.40;99.90
10911;DHT22;5508;49.150;11.030;2022-12-13T02:42:06;-11.70;99.90
10911;DHT22;5508;49.150;11.030;2022-12-13T02:45:17;-11.80;99.90
10911;DHT22;5508;49.150;11.030;2022-12-13T02:48:26;-11.80;99.90
10911;DHT22;5508;49.150;11.030;2022-12-13T02:51:29;-11.80;99.90
10911;DHT22;5508;49.150;11.030;2022-12-13T02:54:30;-11.80;99.90
10911;DHT22;5508;49.150;11.030;2022-12-13T02:57:34;-11.80;99.90
10911;DHT22;5508;49.150;11.030;2022-12-13T03:01:06;-11.90;99.90
10911;DHT22;5508;49.150;11.030;2022-12-13T03:07:38;-11.90;99.90
10911;DHT22;5508;49.150;11.030;2022-12-13T03:11:07;-11.90;99.90
10911;DHT22;5508;49.150;11.030;2022-12-13T03:14:09;-11.90;99.90
10911;DHT22;5508;49.150;11.030;2022-12-13T03:17:14;-11.80;99.90
10911;DHT22;5508;49.150;11.030;2022-12-13T03:20:22;-11.80;99.90
10911;DHT22;5508;49.150;11.030;2022-12-13T03:23:24;-11.90;99.90
10911;DHT22;5508;49.150;11.030;2022-12-13T03:26:26;-12.00;99.90
10911;DHT22;5508;49.150;11.030;2022-12-13T03:29:26;-11.80;99.90
10911;DHT22;5508;49.150;11.030;2022-12-13T03:32:27;-11.70;99.90
10911;DHT22;5508;49.150;11.030;2022-12-13T03:35:28;-11.80;99.90
10911;DHT22;5508;49.150;11.030;2022-12-13T03:38:29;-11.80;99.90
10911;DHT22;5508;49.150;11.030;2022-12-13T03:41:30;-11.90;99.90
10911;DHT22;5508;49.150;11.030;2022-12-13T03:44:32;-11.90;99.90
10911;DHT22;5508;49.150;11.030;2022-12-13T03:47:32;-11.90;99.90
10911;DHT22;5508;49.150;11.030;2022-12-13T03:50:33;-12.00;99.90
10911;DHT22;5508;49.150;11.030;2022-12-13T03:53:33;-12.00;99.90
10911;DHT22;5508;49.150;11.030;2022-12-13T03:56:34;-12.00;99.90
10911;DHT22;5508;49.150;11.030;2022-12-13T03:59:34;-11.90;99.90
10911;DHT22;5508;49.150;11.030;2022-12-13T04:02:35;-11.80;99.90
10911;DHT22;5508;49.150;11.030;2022-12-13T04:05:36;-11.70;99.90
10911;DHT22;5508;49.150;11.030;2022-12-13T04:08:37;-11.80;99.90
10911;DHT22;5508;49.150;11.030;2022-12-13T04:11:38;-11.90;99.90
10911;DHT22;5508;49.150;11.030;2022-12-13T04:14:57;-12.00;99.90
10911;DHT22;5508;49.150;11.030;2022-12-13T04:17:58;-12.00;99.90
10911;DHT22;5508;49.150;11.030;2022-12-13T04:20:58;-12.10;99.90
10911;DHT22;5508;49.150;11.030;2022-12-13T04:23:59;-12.10;99.90
10911;DHT22;5508;49.150;11.030;2022-12-13T04:27:00;-12.10;99.90
10911;DHT22;5508;49.150;11.030;2022-12-13T04:30:01;-12.20;99.90
10911;DHT22;5508;49.150;11.030;2022-12-13T04:33:02;-12.20;99.90
10911;DHT22;5508;49.150;11.030;2022-12-13T04:36:03;-12.30;99.90
10911;DHT22;5508;49.150;11.030;2022-12-13T04:39:04;-12.30;99.90
10911;DHT22;5508;49.150;11.030;2022-12-13T04:42:05;-12.40;99.90
10911;DHT22;5508;49.150;11.030;2022-12-13T04:45:06;-12.40;99.90
10911;DHT22;5508;49.150;11.030;2022-12-13T04:48:07;-12.40;99.90
10911;DHT22;5508;49.150;11.030;2022-12-13T04:51:08;-12.40;99.90
10911;DHT22;5508;49.150;11.030;2022-12-13T04:54:08;-12.40;99.90
10911;DHT22;5508;49.150;11.030;2022-12-13T04:57:10;-12.40;99.90
10911;DHT22;5508;49.150;11.030;2022-12-13T05:00:11;-12.30;99.90
10911;DHT22;5508;49.150;11.030;2022-12-13T05:03:15;-12.10;99.90
10911;DHT22;5508;49.150;11.030;2022-12-13T05:06:16;-12.10;99.90
10911;DHT22;5508;49.150;11.030;2022-12-13T05:09:16;-12.20;99.90
10911;DHT22;5508;49.150;11.030;2022-12-13T05:12:17;-12.30;99.90
10911;DHT22;5508;49.150;11.030;2022-12-13T05:15:17;-12.30;99.90
10911;DHT22;5508;49.150;11.030;2022-12-13T05:18:18;-12.30;99.90
10911;DHT22;5508;49.150;11.030;2022-12-13T05:21:18;-12.30;99.90
10911;DHT22;5508;49.150;11.030;2022-12-13T05:24:19;-12.30;99.90
10911;DHT22;5508;49.150;11.030;2022-12-13T05:27:20;-12.30;99.90
10911;DHT22;5508;49.150;11.030;2022-12-13T05:30:20;-12.20;99.90
10911;DHT22;5508;49.150;11.030;2022-12-13T05:33:22;-12.10;99.90
10911;DHT22;5508;49.150;11.030;2022-12-13T05:36:23;-12.10;99.90
10911;DHT22;5508;49.150;11.030;2022-12-13T05:39:24;-12.10;99.90
10911;DHT22;5508;49.150;11.030;2022-12-13T05:42:25;-12.20;99.90
10911;DHT22;5508;49.150;11.030;2022-12-13T05:45:26;-12.30;99.90
10911;DHT22;5508;49.150;11.030;2022-12-13T05:48:27;-12.40;99.90
10911;DHT22;5508;49.150;11.030;2022-12-13T05:51:27;-12.50;99.90
10911;DHT22;5508;49.150;11.030;2022-12-13T05:54:28;-12.60;99.90
10911;DHT22;5508;49.150;11.030;2022-12-13T05:57:29;-12.60;99.90
10911;DHT22;5508;49.150;11.030;2022-12-13T06:00:30;-12.70;99.90
10911;DHT22;5508;49.150;11.030;2022-12-13T06:03:30;-12.70;99.90
10911;DHT22;5508;49.150;11.030;2022-12-13T06:06:31;-12.60;99.90
10911;DHT22;5508;49.150;11.030;2022-12-13T06:09:32;-12.60;99.90
10911;DHT22;5508;49.150;11.030;2022-12-13T06:12:36;-12.50;99.90
10911;DHT22;5508;49.150;11.030;2022-12-13T06:15:37;-12.40;99.90
10911;DHT22;5508;49.150;11.030;2022-12-13T06:18:37;-12.40;99.90
10911;DHT22;5508;49.150;11.030;2022-12-13T06:21:38;-12.50;99.90
10911;DHT22;5508;49.150;11.030;2022-12-13T06:24:38;-12.50;99.90
10911;DHT22;5508;49.150;11.030;2022-12-13T06:27:39;-12.60;99.90
10911;DHT22;5508;49.150;11.030;2022-12-13T06:30:40;-12.40;99.90
10911;DHT22;5508;49.150;11.030;2022-12-13T06:33:40;-12.40;99.90
10911;DHT22;5508;49.150;11.030;2022-12-13T06:36:41;-12.30;99.90
10911;DHT22;5508;49.150;11.030;2022-12-13T06:39:42;-12.40;99.90
10911;DHT22;5508;49.150;11.030;2022-12-13T06:42:43;-12.50;99.90
10911;DHT22;5508;49.150;11.030;2022-12-13T06:45:44;-12.60;99.90
10911;DHT22;5508;49.150;11.030;2022-12-13T06:48:45;-12.70;99.90
10911;DHT22;5508;49.150;11.030;2022-12-13T06:51:45;-12.60;99.90
10911;DHT22;5508;49.150;11.030;2022-12-13T06:54:46;-12.70;99.90
10911;DHT22;5508;49.150;11.030;2022-12-13T06:57:46;-12.70;99.90
10911;DHT22;5508;49.150;11.030;2022-12-13T07:00:47;-12.80;99.90
10911;DHT22;5508;49.150;11.030;2022-12-13T07:03:48;-12.80;99.90
10911;DHT22;5508;49.150;11.030;2022-12-13T07:06:48;-12.80;99.90
10911;DHT22;5508;49.150;11.030;2022-12-13T07:09:49;-12.80;99.90
10911;DHT22;5508;49.150;11.030;2022-12-13T07:12:49;-12.80;99.90
10911;DHT22;5508;49.150;11.030;2022-12-13T07:15:50;-12.70;99.90
10911;DHT22;5508;49.150;11.030;2022-12-13T07:18:58;-12.70;99.90
10911;DHT22;5508;49.150;11.030;2022-12-13T07:21:59;-12.70;99.90
10911;DHT22;5508;49.150;11.030;2022-12-13T07:25:00;-12.70;99.90
10911;DHT22;5508;49.150;11.030;2022-12-13T07:28:03;-12.70;99.90
10911;DHT22;5508;49.150;11.030;2022-12-13T07:31:06;-12.70;99.90
10911;DHT22;5508;49.150;11.030;2022-12-13T07:34:07;-12.60;99.90
10911;DHT22;5508;49.150;11.030;2022-12-13T07:37:08;-12.50;99.90
10911;DHT22;5508;49.150;11.030;2022-12-13T07:40:09;-12.20;99.90
10911;DHT22;5508;49.150;11.030;2022-12-13T07:43:10;-12.20;99.90
10911;DHT22;5508;49.150;11.030;2022-12-13T07:46:11;-12.20;99.90
10911;DHT22;5508;49.150;11.030;2022-12-13T07:49:12;-12.10;99.90
10911;DHT22;5508;49.150;11.030;2022-12-13T07:52:12;-12.20;99.90
10911;DHT22;5508;49.150;11.030;2022-12-13T07:55:14;-12.20;99.90
10911;DHT22;5508;49.150;11.030;2022-12-13T07:58:15;-12.10;99.90
10911;DHT22;5508;49.150;11.030;2022-12-13T08:01:15;-11.90;99.90
10911;DHT22;5508;49.150;11.030;2022-12-13T08:04:16;-11.80;99.90
10911;DHT22;5508;49.150;11.030;2022-12-13T08:07:17;-11.50;99.90
10911;DHT22;5508;49.150;11.030;2022-12-13T08:10:17;-11.50;99.90
10911;DHT22;5508;49.150;11.030;2022-12-13T08:13:18;-11.40;99.90
10911;DHT22;5508;49.150;11.030;2022-12-13T08:16:19;-11.20;99.90
10911;DHT22;5508;49.150;11.030;2022-12-13T08:19:19;-11.00;99.90
10911;DHT22;5508;49.150;11.030;2022-12-13T08:22:20;-10.90;99.90
10911;DHT22;5508;49.150;11.030;2022-12-13T08:25:21;-10.80;99.90
10911;DHT22;5508;49.150;11.030;2022-12-13T08:28:22;-10.60;99.90
10911;DHT22;5508;49.150;11.030;2022-12-13T08:31:23;-10.50;99.90
10911;DHT22;5508;49.150;11.030;2022-12-13T08:34:24;-10.20;99.90
10911;DHT22;5508;49.150;11.030;2022-12-13T08:37:24;-10.00;99.90
10911;DHT22;5508;49.150;11.030;2022-12-13T08:40:25;-9.80;99.90
10911;DHT22;5508;49.150;11.030;2022-12-13T08:43:25;-9.70;99.70
10911;DHT22;5508;49.150;11.030;2022-12-13T08:46:26;-9.60;99.90
10911;DHT22;5508;49.150;11.030;2022-12-13T08:49:27;-9.50;99.90
10911;DHT22;5508;49.150;11.030;2022-12-13T08:52:27;-9.40;99.90
10911;DHT22;5508;49.150;11.030;2022-12-13T08:55:28;-9.30;99.90
10911;DHT22;5508;49.150;11.030;2022-12-13T08:58:29;-9.10;99.90
10911;DHT22;5508;49.150;11.030;2022-12-13T09:01:30;-9.00;99.80
10911;DHT22;5508;49.150;11.030;2022-12-13T09:04:31;-8.90;99.90
10911;DHT22;5508;49.150;11.030;2022-12-13T09:07:31;-8.80;99.90
10911;DHT22;5508;49.150;11.030;2022-12-13T09:10:32;-8.60;99.90
10911;DHT22;5508;49.150;11.030;2022-12-13T09:13:34;-8.50;99.90
10911;DHT22;5508;49.150;11.030;2022-12-13T09:16:37;-8.40;99.90
10911;DHT22;5508;49.150;11.030;2022-12-13T09:19:37;-8.20;99.90
10911;DHT22;5508;49.150;11.030;2022-12-13T09:22:38;-8.00;99.90
10911;DHT22;5508;49.150;11.030;2022-12-13T09:25:38;-7.80;99.90
10911;DHT22;5508;49.150;11.030;2022-12-13T09:28:40;-7.80;99.90
10911;DHT22;5508;49.150;11.030;2022-12-13T09:31:41;-7.70;99.90
10911;DHT22;5508;49.150;11.030;2022-12-13T09:34:42;-7.50;99.90
10911;DHT22;5508;49.150;11.030;2022-12-13T09:37:42;-7.40;99.90
10911;DHT22;5508;49.150;11.030;2022-12-13T09:40:44;-7.30;99.90
10911;DHT22;5508;49.150;11.030;2022-12-13T09:44:12;-7.10;99.90
10911;DHT22;5508;49.150;11.030;2022-12-13T09:47:30;-7.00;99.90
10911;DHT22;5508;49.150;11.030;2022-12-13T09:50:34;-6.80;99.90
10911;DHT22;5508;49.150;11.030;2022-12-13T09:53:34;-6.60;99.70
10911;DHT22;5508;49.150;11.030;2022-12-13T09:56:35;-6.50;99.90
10911;DHT22;5508;49.150;11.030;2022-12-13T09:59:36;-6.40;99.90
10911;DHT22;5508;49.150;11.030;2022-12-13T10:02:43;-6.30;99.90
10911;DHT22;5508;49.150;11.030;2022-12-13T10:05:49;-6.10;99.90
10911;DHT22;5508;49.150;11.030;2022-12-13T10:08:53;-6.00;99.90
10911;DHT22;5508;49.150;11.030;2022-12-13T10:11:54;-5.80;99.00
10911;DHT22;5508;49.150;11.030;2022-12-13T10:14:58;-5.90;97.30
10911;DHT22;5508;49.150;11.030;2022-12-13T10:18:01;-5.90;98.30
10911;DHT22;5508;49.150;11.030;2022-12-13T10:21:09;-5.70;99.20
10911;DHT22;5508;49.150;11.030;2022-12-13T10:24:22;-5.70;96.80
10911;DHT22;5508;49.150;11.030;2022-12-13T10:27:44;-5.60;97.40
10911;DHT22;5508;49.150;11.030;2022-12-13T10:30:45;-5.60;96.70
10911;DHT22;5508;49.150;11.030;2022-12-13T10:33:53;-5.40;97.50
10911;DHT22;5508;49.150;11.030;2022-12-13T10:36:55;-5.30;96.80
10911;DHT22;5508;49.150;11.030;2022-12-13T10:39:57;-5.30;95.50
10911;DHT22;5508;49.150;11.030;2022-12-13T10:43:15;-5.30;96.20
10911;DHT22;5508;49.150;11.030;2022-12-13T10:46:19;-5.30;95.60
10911;DHT22;5508;49.150;11.030;2022-12-13T10:49:26;-5.30;94.30
10911;DHT22;5508;49.150;11.030;2022-12-13T10:52:39;-5.30;94.60
10911;DHT22;5508;49.150;11.030;2022-12-13T10:55:41;-5.20;95.60
10911;DHT22;5508;49.150;11.030;2022-12-13T10:58:44;-5.00;96.30
10911;DHT22;5508;49.150;11.030;2022-12-13T11:01:46;-4.90;95.70
10911;DHT22;5508;49.150;11.030;2022-12-13T11:04:46;-4.70;94.90
10911;DHT22;5508;49.150;11.030;2022-12-13T11:07:47;-4.70;94.30
10911;DHT22;5508;49.150;11.030;2022-12-13T11:11:01;-4.60;94.30
10911;DHT22;5508;49.150;11.030;2022-12-13T11:14:02;-4.50;91.30
10911;DHT22;5508;49.150;11.030;2022-12-13T11:17:09;-4.50;93.90
10911;DHT22;5508;49.150;11.030;2022-12-13T11:20:35;-4.40;92.70
10911;DHT22;5508;49.150;11.030;2022-12-13T11:23:41;-4.40;93.00
10911;DHT22;5508;49.150;11.030;2022-12-13T11:26:44;-4.40;91.00
10911;DHT22;5508;49.150;11.030;2022-12-13T11:39:30;-4.30;91.50
10911;DHT22;5508;49.150;11.030;2022-12-13T11:42:45;-4.20;91.30
10911;DHT22;5508;49.150;11.030;2022-12-13T11:45:55;-4.00;91.20
10911;DHT22;5508;49.150;11.030;2022-12-13T11:49:00;-3.80;88.90
10911;DHT22;5508;49.150;11.030;2022-12-13T11:52:13;-3.80;89.70
10911;DHT22;5508;49.150;11.030;2022-12-13T11:58:49;-3.80;87.50
10911;DHT22;5508;49.150;11.030;2022-12-13T12:01:52;-3.80;88.60
10911;DHT22;5508;49.150;11.030;2022-12-13T12:04:55;-3.90;87.10
10911;DHT22;5508;49.150;11.030;2022-12-13T12:08:13;-3.80;89.20
10911;DHT22;5508;49.150;11.030;2022-12-13T12:14:34;-3.70;88.60
10911;DHT22;5508;49.150;11.030;2022-12-13T12:17:36;-3.60;87.10
10911;DHT22;5508;49.150;11.030;2022-12-13T12:20:59;-3.70;87.00
10911;DHT22;5508;49.150;11.030;2022-12-13T12:28:10;-3.80;87.10
10911;DHT22;5508;49.150;11.030;2022-12-13T12:34:45;-3.80;86.70
10911;DHT22;5508;49.150;11.030;2022-12-13T12:41:19;-3.80;87.10
10911;DHT22;5508;49.150;11.030;2022-12-13T12:44:44;-3.70;88.30
10911;DHT22;5508;49.150;11.030;2022-12-13T12:51:20;-3.70;86.60
10911;DHT22;5508;49.150;11.030;2022-12-13T12:57:58;-3.80;87.10
10911;DHT22;5508;49.150;11.030;2022-12-13T13:04:24;-3.70;86.40
10911;DHT22;5508;49.150;11.030;2022-12-13T13:07:30;-3.60;85.40
10911;DHT22;5508;49.150;11.030;2022-12-13T13:10:32;-3.60;85.30
10911;DHT22;5508;49.150;11.030;2022-12-13T13:16:45;-3.70;84.90
10911;DHT22;5508;49.150;11.030;2022-12-13T13:19:47;-3.80;85.60
10911;DHT22;5508;49.150;11.030;2022-12-13T13:22:49;-3.90;86.60
10911;DHT22;5508;49.150;11.030;2022-12-13T13:25:54;-3.90;87.10
10911;DHT22;5508;49.150;11.030;2022-12-13T13:32:39;-4.00;87.20
10911;DHT22;5508;49.150;11.030;2022-12-13T13:35:46;-4.10;88.00
10911;DHT22;5508;49.150;11.030;2022-12-13T13:38:50;-4.10;86.60
10911;DHT22;5508;49.150;11.030;2022-12-13T13:45:22;-4.20;89.00
10911;DHT22;5508;49.150;11.030;2022-12-13T13:52:20;-4.30;89.20
10911;DHT22;5508;49.150;11.030;2022-12-13T14:15:34;-4.60;90.10
10911;DHT22;5508;49.150;11.030;2022-12-13T14:28:59;-4.90;91.20
10911;DHT22;5508;49.150;11.030;2022-12-13T14:32:00;-4.90;90.60
10911;DHT22;5508;49.150;11.030;2022-12-13T14:35:01;-5.00;91.20
10911;DHT22;5508;49.150;11.030;2022-12-13T14:38:15;-5.00;92.10
10911;DHT22;5508;49.150;11.030;2022-12-13T14:41:18;-5.10;92.40
10911;DHT22;5508;49.150;11.030;2022-12-13T14:44:31;-5.10;92.40
10911;DHT22;5508;49.150;11.030;2022-12-13T14:47:35;-5.20;92.50
10911;DHT22;5508;49.150;11.030;2022-12-13T14:50:37;-5.30;92.80
10911;DHT22;5508;49.150;11.030;2022-12-13T14:53:39;-5.30;93.00
10911;DHT22;5508;49.150;11.030;2022-12-13T14:57:00;-5.40;93.40
10911;DHT22;5508;49.150;11.030;2022-12-13T15:00:30;-5.40;93.90
10911;DHT22;5508;49.150;11.030;2022-12-13T15:03:31;-5.50;94.40
10911;DHT22;5508;49.150;11.030;2022-12-13T15:06:32;-5.60;94.60
10911;DHT22;5508;49.150;11.030;2022-12-13T15:09:40;-5.60;95.20
10911;DHT22;5508;49.150;11.030;2022-12-13T15:12:42;-5.60;96.00
10911;DHT22;5508;49.150;11.030;2022-12-13T15:15:43;-5.70;96.20
10911;DHT22;5508;49.150;11.030;2022-12-13T15:18:44;-5.70;96.80
10911;DHT22;5508;49.150;11.030;2022-12-13T15:21:59;-5.70;96.80
10911;DHT22;5508;49.150;11.030;2022-12-13T15:25:00;-5.60;96.20
10911;DHT22;5508;49.150;11.030;2022-12-13T15:28:03;-5.70;96.60
10911;DHT22;5508;49.150;11.030;2022-12-13T15:31:05;-5.70;96.80
10911;DHT22;5508;49.150;11.030;2022-12-13T15:37:27;-5.70;96.20
10911;DHT22;5508;49.150;11.030;2022-12-13T15:40:29;-5.80;96.80
10911;DHT22;5508;49.150;11.030;2022-12-13T15:43:35;-5.90;96.10
10911;DHT22;5508;49.150;11.030;2022-12-13T15:46:36;-5.90;97.30
10911;DHT22;5508;49.150;11.030;2022-12-13T15:49:55;-6.00;96.80
10911;DHT22;5508;49.150;11.030;2022-12-13T15:53:01;-6.00;97.20
10911;DHT22;5508;49.150;11.030;2022-12-13T15:56:26;-6.00;97.40
10911;DHT22;5508;49.150;11.030;2022-12-13T15:59:33;-6.00;97.60
10911;DHT22;5508;49.150;11.030;2022-12-13T16:02:34;-6.00;97.60
10911;DHT22;5508;49.150;11.030;2022-12-13T16:05:49;-6.10;97.80
10911;DHT22;5508;49.150;11.030;2022-12-13T16:08:58;-6.10;98.10
10911;DHT22;5508;49.150;11.030;2022-12-13T16:12:05;-6.10;98.40
10911;DHT22;5508;49.150;11.030;2022-12-13T16:15:18;-6.10;98.80
10911;DHT22;5508;49.150;11.030;2022-12-13T16:18:23;-6.10;99.00
10911;DHT22;5508;49.150;11.030;2022-12-13T16:21:27;-6.10;99.20
10911;DHT22;5508;49.150;11.030;2022-12-13T16:24:27;-6.10;99.20
10911;DHT22;5508;49.150;11.030;2022-12-13T16:27:28;-6.20;99.10
10911;DHT22;5508;49.150;11.030;2022-12-13T16:31:00;-6.20;99.20
10911;DHT22;5508;49.150;11.030;2022-12-13T16:34:03;-6.20;99.30
10911;DHT22;5508;49.150;11.030;2022-12-13T16:37:04;-6.20;99.20
10911;DHT22;5508;49.150;11.030;2022-12-13T16:40:25;-6.20;99.80
10911;DHT22;5508;49.150;11.030;2022-12-13T16:43:30;-6.20;99.90
10911;DHT22;5508;49.150;11.030;2022-12-13T16:46:32;-6.20;99.90
10911;DHT22;5508;49.150;11.030;2022-12-13T16:49:33;-6.30;99.90
10911;DHT22;5508;49.150;11.030;2022-12-13T16:52:34;-6.30;99.90
10911;DHT22;5508;49.150;11.030;2022-12-13T16:55:35;-6.30;99.90
10911;DHT22;5508;49.150;11.030;2022-12-13T16:58:36;-6.30;99.60
10911;DHT22;5508;49.150;11.030;2022-12-13T17:01:37;-6.20;99.90
10911;DHT22;5508;49.150;11.030;2022-12-13T17:04:38;-6.20;99.20
10911;DHT22;5508;49.150;11.030;2022-12-13T17:07:40;-6.30;99.50
10911;DHT22;5508;49.150;11.030;2022-12-13T17:10:42;-6.30;99.90
10911;DHT22;5508;49.150;11.030;2022-12-13T17:13:43;-6.40;99.90
10911;DHT22;5508;49.150;11.030;2022-12-13T17:16:46;-6.40;99.90
10911;DHT22;5508;49.150;11.030;2022-12-13T17:19:46;-6.40;99.90
10911;DHT22;5508;49.150;11.030;2022-12-13T17:22:47;-6.30;99.90
10911;DHT22;5508;49.150;11.030;2022-12-13T17:25:48;-6.20;99.90
10911;DHT22;5508;49.150;11.030;2022-12-13T17:28:48;-6.10;99.40
10911;DHT22;5508;49.150;11.030;2022-12-13T17:31:49;-6.10;98.10
10911;DHT22;5508;49.150;11.030;2022-12-13T17:34:50;-6.20;97.50
10911;DHT22;5508;49.150;11.030;2022-12-13T17:37:51;-6.20;97.50
10911;DHT22;5508;49.150;11.030;2022-12-13T17:40:52;-6.20;97.40
10911;DHT22;5508;49.150;11.030;2022-12-13T17:43:57;-6.20;97.30
10911;DHT22;5508;49.150;11.030;2022-12-13T17:46:58;-6.20;97.20
10911;DHT22;5508;49.150;11.030;2022-12-13T17:49:59;-6.20;97.50
10911;DHT22;5508;49.150;11.030;2022-12-13T17:52:59;-6.20;97.90
10911;DHT22;5508;49.150;11.030;2022-12-13T17:56:03;-6.30;98.10
10911;DHT22;5508;49.150;11.030;2022-12-13T17:59:05;-6.40;99.10
10911;DHT22;5508;49.150;11.030;2022-12-13T18:02:08;-6.50;99.20
10911;DHT22;5508;49.150;11.030;2022-12-13T18:05:09;-6.60;99.90
10911;DHT22;5508;49.150;11.030;2022-12-13T18:08:11;-6.70;99.90
10911;DHT22;5508;49.150;11.030;2022-12-13T18:11:13;-6.70;99.90
10911;DHT22;5508;49.150;11.030;2022-12-13T18:14:15;-6.60;99.90
10911;DHT22;5508;49.150;11.030;2022-12-13T18:17:15;-6.60;99.90
10911;DHT22;5508;49.150;11.030;2022-12-13T18:20:18;-6.70;99.90
10911;DHT22;5508;49.150;11.030;2022-12-13T18:23:19;-6.70;99.90
10911;DHT22;5508;49.150;11.030;2022-12-13T18:26:20;-6.60;99.90
10911;DHT22;5508;49.150;11.030;2022-12-13T18:29:21;-6.50;99.90
10911;DHT22;5508;49.150;11.030;2022-12-13T18:32:21;-6.60;99.90
10911;DHT22;5508;49.150;11.030;2022-12-13T18:35:22;-6.60;99.90
10911;DHT22;5508;49.150;11.030;2022-12-13T18:38:23;-6.60;99.90
10911;DHT22;5508;49.150;11.030;2022-12-13T18:41:26;-6.50;99.90
10911;DHT22;5508;49.150;11.030;2022-12-13T18:44:28;-6.50;99.90
10911;DHT22;5508;49.150;11.030;2022-12-13T18:47:28;-6.40;99.90
10911;DHT22;5508;49.150;11.030;2022-12-13T18:50:29;-6.40;99.90
10911;DHT22;5508;49.150;11.030;2022-12-13T18:53:31;-6.50;99.90
10911;DHT22;5508;49.150;11.030;2022-12-13T18:56:32;-6.50;99.90
10911;DHT22;5508;49.150;11.030;2022-12-13T18:59:32;-6.50;99.90
10911;DHT22;5508;49.150;11.030;2022-12-13T19:02:33;-6.50;99.90
10911;DHT22;5508;49.150;11.030;2022-12-13T19:05:34;-6.50;99.90
10911;DHT22;5508;49.150;11.030;2022-12-13T19:08:34;-6.50;99.90
10911;DHT22;5508;49.150;11.030;2022-12-13T19:11:35;-6.60;99.90
10911;DHT22;5508;49.150;11.030;2022-12-13T19:14:36;-6.50;99.90
10911;DHT22;5508;49.150;11.030;2022-12-13T19:17:36;-6.50;99.90
10911;DHT22;5508;49.150;11.030;2022-12-13T19:20:37;-6.60;99.90
10911;DHT22;5508;49.150;11.030;2022-12-13T19:23:38;-6.60;99.90
10911;DHT22;5508;49.150;11.030;2022-12-13T19:26:38;-6.50;99.90
10911;DHT22;5508;49.150;11.030;2022-12-13T19:29:39;-6.50;99.90
10911;DHT22;5508;49.150;11.030;2022-12-13T19:32:40;-6.60;99.90
10911;DHT22;5508;49.150;11.030;2022-12-13T19:35:42;-6.60;99.90
10911;DHT22;5508;49.150;11.030;2022-12-13T19:38:42;-6.60;99.90
10911;DHT22;5508;49.150;11.030;2022-12-13T19:41:43;-6.60;99.90
10911;DHT22;5508;49.150;11.030;2022-12-13T19:44:43;-6.60;99.90
10911;DHT22;5508;49.150;11.030;2022-12-13T19:47:44;-6.70;99.90
10911;DHT22;5508;49.150;11.030;2022-12-13T19:50:44;-6.70;99.90
10911;DHT22;5508;49.150;11.030;2022-12-13T19:53:46;-6.70;99.90
10911;DHT22;5508;49.150;11.030;2022-12-13T19:56:46;-6.50;99.90
10911;DHT22;5508;49.150;11.030;2022-12-13T19:59:47;-6.50;99.90
10911;DHT22;5508;49.150;11.030;2022-12-13T20:02:47;-6.50;99.90
10911;DHT22;5508;49.150;11.030;2022-12-13T20:05:56;-6.40;99.90
10911;DHT22;5508;49.150;11.030;2022-12-13T20:08:57;-6.40;99.90
10911;DHT22;5508;49.150;11.030;2022-12-13T20:11:57;-6.40;99.90
10911;DHT22;5508;49.150;11.030;2022-12-13T20:14:58;-6.40;99.90
10911;DHT22;5508;49.150;11.030;2022-12-13T20:18:02;-6.40;99.90
10911;DHT22;5508;49.150;11.030;2022-12-13T20:21:04;-6.30;99.90
10911;DHT22;5508;49.150;11.030;2022-12-13T20:24:05;-6.30;99.90
10911;DHT22;5508;49.150;11.030;2022-12-13T20:27:05;-6.30;99.90
10911;DHT22;5508;49.150;11.030;2022-12-13T20:30:07;-6.20;99.90
10911;DHT22;5508;49.150;11.030;2022-12-13T20:33:07;-6.20;99.90
10911;DHT22;5508;49.150;11.030;2022-12-13T20:36:11;-6.20;99.90
10911;DHT22;5508;49.150;11.030;2022-12-13T20:39:12;-6.20;99.90
10911;DHT22;5508;49.150;11.030;2022-12-13T20:42:14;-6.20;99.90
10911;DHT22;5508;49.150;11.030;2022-12-13T20:45:14;-6.10;99.90
10911;DHT22;5508;49.150;11.030;2022-12-13T20:48:15;-6.20;99.90
10911;DHT22;5508;49.150;11.030;2022-12-13T20:51:19;-6.20;99.90